createdAt,value
2022-12-27T05:00:34.836Z,1.40
2022-12-27T05:11:39.694Z,1.30
2022-12-27T05:22:40.528Z,1.40
2022-12-27T05:33:39.420Z,1.40
2022-12-27T05:44:39.288Z,1.30
2022-12-27T05:55:39.169Z,1.60
2022-12-27T06:06:39.046Z,1.60
2022-12-27T06:17:38.923Z,1.30
2022-12-27T06:28:39.798Z,1.80
2022-12-27T06:39:38.678Z,1.50
2022-12-27T06:50:38.577Z,1.10
2022-12-27T07:01:38.523Z,1.70
2022-12-27T07:12:38.316Z,1.20
2022-12-27T07:23:38.210Z,2.20
2022-12-27T07:34:38.072Z,1.40
2022-12-27T07:45:38.025Z,1.80
2022-12-27T07:56:37.842Z,2.50
2022-12-27T08:07:38.714Z,2.00
2022-12-27T08:18:37.593Z,2.80
2022-12-27T08:29:37.554Z,1.80
2022-12-27T08:40:37.342Z,2.00
2022-12-27T08:51:41.052Z,2.10
2022-12-27T09:02:37.338Z,2.60
2022-12-27T09:13:37.009Z,2.00
2022-12-27T09:24:36.868Z,1.40
2022-12-27T09:35:38.655Z,1.80
2022-12-27T09:46:36.675Z,2.00
2022-12-27T09:57:37.512Z,2.50
2022-12-27T10:08:36.370Z,4.90
2022-12-27T10:19:36.266Z,2.20
2022-12-27T10:30:36.140Z,2.00
2022-12-27T10:41:35.993Z,2.00
2022-12-27T10:52:35.872Z,2.00
2022-12-27T11:03:35.751Z,7.00
2022-12-27T11:14:35.674Z,3.30
2022-12-27T11:25:35.532Z,1.80
2022-12-27T11:36:35.402Z,2.40
2022-12-27T11:47:35.258Z,2.00
2022-12-27T11:58:35.127Z,2.00
2022-12-27T12:09:35.024Z,1.70
2022-12-27T12:20:34.932Z,1.70
2022-12-27T12:31:34.805Z,1.80
2022-12-27T12:42:34.646Z,1.60
2022-12-27T12:53:34.513Z,1.60
2022-12-27T13:04:34.385Z,1.60
2022-12-27T13:15:34.272Z,1.50
2022-12-27T13:26:34.170Z,2.10
2022-12-27T13:37:34.025Z,1.40
2022-12-27T13:48:33.906Z,1.80
2022-12-27T13:59:33.785Z,1.30
2022-12-27T14:10:33.669Z,1.20
2022-12-27T14:21:33.545Z,1.70
2022-12-27T14:32:33.440Z,1.20
2022-12-27T14:43:33.299Z,1.50
2022-12-27T14:54:33.170Z,2.10
2022-12-27T15:05:33.065Z,1.90
2022-12-27T15:16:32.939Z,1.10
2022-12-27T15:27:32.836Z,1.50
2022-12-27T15:38:32.670Z,1.90
2022-12-27T15:49:32.566Z,1.90
2022-12-27T16:00:34.230Z,2.20
2022-12-27T16:11:32.310Z,2.30
2022-12-27T16:22:32.194Z,1.70
2022-12-27T16:33:32.058Z,2.60
2022-12-27T16:44:38.006Z,3.10
2022-12-27T16:55:31.827Z,4.00
2022-12-27T17:06:33.709Z,3.10
2022-12-27T17:17:31.560Z,3.60
2022-12-27T17:28:31.569Z,2.60
2022-12-27T17:39:31.317Z,3.40
2022-12-27T17:50:31.199Z,3.60
2022-12-27T18:01:31.181Z,5.20
2022-12-27T18:12:30.983Z,5.20
2022-12-27T18:23:30.830Z,5.10
2022-12-27T18:34:30.717Z,4.90
2022-12-27T18:45:30.669Z,4.30
2022-12-27T18:56:30.461Z,6.80
2022-12-27T19:07:30.347Z,4.90
2022-12-27T19:18:30.246Z,4.50
2022-12-27T19:29:30.105Z,4.10
2022-12-27T19:40:29.981Z,3.60
2022-12-27T19:51:29.920Z,4.60
2022-12-27T20:02:29.897Z,4.00
2022-12-27T20:13:29.613Z,4.60
2022-12-27T20:24:29.490Z,6.10
2022-12-27T20:35:29.370Z,5.10
2022-12-27T20:46:29.248Z,4.20
2022-12-27T20:57:29.136Z,3.80
2022-12-27T21:08:29.003Z,3.50
2022-12-27T21:19:28.878Z,3.30
2022-12-27T21:30:28.758Z,2.90
2022-12-27T21:41:28.673Z,3.70
2022-12-27T21:52:28.512Z,3.20
